Time;durP1;ratioP1;P1;durP2;ratioP2;P2;SDS_P1;SDS_P2;PMS_P1;PMS_P2;Temp;Humidity;BMP_temperature;BMP_pressure;BME280_temperature;BME280_humidity;BME280_pressure;Samples;Min_cycle;Max_cycle;Signal;HPM_P1;HPM_P2
2023/04/27 00:00:09;;;;;;;;;;;13.30;53.80;;;8.58;97.36;95551.25;4973489;28;20372;-52
2023/04/27 00:02:37;;;;;;;;;;;13.30;53.80;;;8.65;99.93;95552.91;4974465;28;20264;-48
2023/04/27 00:05:04;;;;;;;;;;;13.30;53.90;;;8.67;99.78;95548.94;4980719;28;20327;-47
2023/04/27 00:07:30;;;;;;;;;;;13.20;54.00;;;8.62;97.32;95548.09;4994002;28;20007;-52
2023/04/27 00:09:56;;;;;;;;;;;13.20;54.00;;;8.62;93.52;95548.94;4993828;28;19913;-47
2023/04/27 00:12:22;;;;;;;;;;;13.20;54.10;;;8.61;89.76;95541.19;4974262;28;19910;-48
2023/04/27 00:14:48;;;;;;;;;;;13.20;54.20;;;8.72;92.43;95545.56;4974157;28;19909;-47
2023/04/27 00:17:14;;;;;;;;;;;13.20;54.80;;;8.77;93.57;95542.91;4973479;28;20304;-48
2023/04/27 00:19:40;;;;;;;;;;;13.20;54.20;;;8.80;94.43;95545.06;4989108;28;19910;-47
2023/04/27 00:22:07;;;;;;;;;;;13.20;54.20;;;8.80;93.96;95539.75;4988336;23;20316;-51
2023/04/27 00:24:33;;;;;;;;;;;13.30;54.30;;;8.79;94.68;95538.97;4974111;28;19949;-48
2023/04/27 00:26:59;;;;;;;;;;;13.20;54.30;;;8.77;93.94;95533.13;4974213;28;19960;-54
2023/04/27 00:29:25;;;;;;;;;;;13.20;54.30;;;8.77;93.81;95534.94;4982945;28;20348;-55
2023/04/27 00:31:50;;;;;;;;;;;13.20;54.30;;;8.75;95.06;95534.44;4958461;28;20008;-55
2023/04/27 00:34:16;;;;;;;;;;;13.20;54.40;;;8.71;96.06;95535.97;4953702;28;19910;-54
2023/04/27 00:36:42;;;;;;;;;;;13.20;54.40;;;8.71;96.51;95522.69;4954585;28;20345;-51
2023/04/27 00:39:08;;;;;;;;;;;13.20;54.40;;;8.69;96.88;95522.97;4954492;28;19917;-52
2023/04/27 00:41:38;;;;;;;;;;;13.20;54.50;;;8.63;97.95;95528.47;4963194;28;19910;-54
2023/04/27 00:44:04;;;;;;;;;;;13.20;54.60;;;8.58;98.36;95521.25;4973869;28;19918;-52
2023/04/27 00:46:32;;;;;;;;;;;13.10;54.60;;;8.45;99.37;95524.34;4969837;28;19914;-56
2023/04/27 00:48:59;;;;;;;;;;;13.00;54.60;;;8.45;99.79;95522.47;4954664;28;19936;-50
2023/04/27 00:51:29;;;;;;;;;;;13.00;54.70;;;8.38;98.55;95521.06;4953355;28;19910;-49
2023/04/27 00:53:57;;;;;;;;;;;13.00;54.80;;;8.34;98.97;95510.94;4953584;28;20004;-52
2023/04/27 00:56:23;;;;;;;;;;;13.00;54.90;;;8.31;96.40;95511.44;4954239;28;19910;-50
2023/04/27 00:58:49;;;;;;;;;;;12.90;54.90;;;8.27;94.41;95518.31;4952461;28;19965;-50
2023/04/27 01:01:15;;;;;;;;;;;12.90;55.00;;;8.30;94.98;95509.03;4953926;28;19910;-52
2023/04/27 01:03:41;;;;;;;;;;;12.90;55.00;;;8.34;95.00;95507.50;4954298;28;19921;-53
2023/04/27 01:06:07;;;;;;;;;;;12.90;55.10;;;8.43;95.96;95510.50;4953275;28;20369;-52
2023/04/27 01:08:33;;;;;;;;;;;12.90;55.20;;;8.46;96.22;95513.47;4953873;28;19910;-54
2023/04/27 01:10:58;;;;;;;;;;;12.90;55.20;;;8.47;97.15;95511.63;4953183;28;20403;-50
2023/04/27 01:13:24;;;;;;;;;;;12.90;55.30;;;8.47;97.75;95520.38;4954179;28;20258;-53
2023/04/27 01:15:50;;;;;;;;;;;12.90;55.40;;;8.46;97.62;95523.28;4954026;28;19910;-49
2023/04/27 01:18:15;;;;;;;;;;;12.90;55.40;;;8.46;98.03;95529.41;4953342;28;20005;-52
2023/04/27 01:20:42;;;;;;;;;;;12.90;55.40;;;8.45;97.96;95535.75;4953634;28;19972;-54
2023/04/27 01:23:07;;;;;;;;;;;12.90;55.40;;;8.44;97.87;95534.16;4952857;28;19964;-53
2023/04/27 01:25:33;;;;;;;;;;;12.90;55.50;;;8.43;98.36;95543.19;4953986;28;19949;-51
2023/04/27 01:27:59;;;;;;;;;;;12.90;55.60;;;8.43;98.23;95537.06;4954345;28;20388;-52
2023/04/27 01:30:27;;;;;;;;;;;13.00;55.60;;;8.40;98.17;95542.88;4952982;28;19913;-54
2023/04/27 01:32:53;;;;;;;;;;;12.90;55.60;;;8.38;98.64;95537.81;4936786;28;20562;-55
2023/04/27 01:35:18;;;;;;;;;;;12.90;55.60;;;8.40;99.08;95541.03;4952985;28;19914;-53
2023/04/27 01:37:44;;;;;;;;;;;12.90;55.60;;;8.39;99.55;95542.06;4953638;28;19916;-50
2023/04/27 01:40:10;;;;;;;;;;;12.90;55.70;;;8.36;99.60;95537.22;4952823;28;19910;-50
2023/04/27 01:42:37;;;;;;;;;;;12.90;55.70;;;8.37;99.08;95543.34;4953685;28;19910;-54
2023/04/27 01:45:03;;;;;;;;;;;12.90;55.80;;;8.35;99.32;95543.59;4953645;28;20372;-50
2023/04/27 01:47:29;;;;;;;;;;;12.90;55.80;;;8.36;99.09;95545.19;4953001;28;19914;-55
2023/04/27 01:49:55;;;;;;;;;;;12.90;55.90;;;8.36;99.17;95542.53;4953489;29;20412;-51
2023/04/27 01:52:21;;;;;;;;;;;12.90;56.00;;;8.34;99.54;95548.09;4952834;28;19977;-50
2023/04/27 01:54:46;;;;;;;;;;;12.90;56.00;;;8.35;99.56;95551.56;4953515;29;20277;-51
2023/04/27 01:57:13;;;;;;;;;;;12.90;56.00;;;8.35;99.00;95559.53;4953134;29;19953;-50
2023/04/27 01:59:38;;;;;;;;;;;12.90;56.10;;;8.35;99.26;95562.97;4961772;28;19913;-52
2023/04/27 02:02:04;;;;;;;;;;;12.90;56.10;;;8.34;99.24;95569.34;4953317;28;20468;-50
2023/04/27 02:04:30;;;;;;;;;;;12.90;56.10;;;8.33;100.00;95574.88;4952426;28;20008;-54
2023/04/27 02:06:56;;;;;;;;;;;12.90;56.20;;;8.35;100.00;95570.13;4953228;29;19945;-51
2023/04/27 02:09:21;;;;;;;;;;;12.90;56.30;;;8.36;100.00;95574.38;4953370;29;20258;-51
2023/04/27 02:11:47;;;;;;;;;;;12.90;56.30;;;8.34;100.00;95569.34;4952701;28;19945;-50
2023/04/27 02:14:13;;;;;;;;;;;12.90;56.40;;;8.33;100.00;95573.03;4953292;29;19909;-52
2023/04/27 02:16:39;;;;;;;;;;;12.90;56.40;;;8.34;100.00;95560.59;4952592;28;19910;-52
2023/04/27 02:19:04;;;;;;;;;;;12.90;56.40;;;8.35;100.00;95560.31;4953371;28;19910;-50
2023/04/27 02:21:30;;;;;;;;;;;12.90;56.50;;;8.35;100.00;95552.34;4954128;28;20388;-52
2023/04/27 02:23:56;;;;;;;;;;;12.90;56.50;;;8.32;100.00;95546.75;4969742;28;19969;-51
2023/04/27 02:26:28;;;;;;;;;;;12.80;56.50;;;8.27;100.00;95552.00;4976411;28;19953;-52
2023/04/27 02:28:55;;;;;;;;;;;12.80;56.60;;;8.24;100.00;95555.16;4975377;28;19910;-52
2023/04/27 02:31:22;;;;;;;;;;;12.80;56.70;;;8.22;100.00;95554.63;4959019;28;20392;-53
2023/04/27 02:33:47;;;;;;;;;;;12.80;56.70;;;8.18;100.00;95551.66;4957007;28;20004;-51
2023/04/27 02:36:13;;;;;;;;;;;12.80;56.80;;;8.13;100.00;95551.59;4971693;28;20000;-50
2023/04/27 02:38:39;;;;;;;;;;;12.70;56.80;;;8.10;100.00;95541.50;4975823;28;19956;-49
2023/04/27 02:41:04;;;;;;;;;;;12.70;56.80;;;8.06;100.00;95535.88;4967227;28;19917;-48
2023/04/27 02:43:30;;;;;;;;;;;12.70;56.80;;;8.03;100.00;95538.25;4956672;28;19914;-48
2023/04/27 02:45:56;;;;;;;;;;;12.60;56.80;;;7.98;100.00;95536.31;4956525;28;19914;-52
2023/04/27 02:48:22;;;;;;;;;;;12.60;57.00;;;7.93;100.00;95538.94;4955420;28;20396;-52
2023/04/27 02:50:47;;;;;;;;;;;12.50;56.90;;;7.89;100.00;95538.59;4956121;28;19914;-47
2023/04/27 02:53:14;;;;;;;;;;;12.50;57.00;;;7.87;100.00;95538.06;4956032;28;19910;-52
2023/04/27 02:55:48;;;;;;;;;;;12.50;57.10;;;7.83;100.00;95546.75;4956090;28;20001;-53
2023/04/27 02:58:16;;;;;;;;;;;12.40;57.10;;;7.77;100.00;95537.97;4955845;28;19910;-54
2023/04/27 03:00:42;;;;;;;;;;;12.40;57.20;;;7.76;100.00;95538.19;4956140;28;19921;-51
2023/04/27 03:03:11;;;;;;;;;;;12.40;57.30;;;7.75;100.00;95536.59;4956108;28;20283;-52
2023/04/27 03:05:37;;;;;;;;;;;12.40;57.30;;;7.72;100.00;95545.84;4944264;28;19961;-50
2023/04/27 03:08:03;;;;;;;;;;;12.30;57.30;;;7.68;100.00;95541.25;4935986;29;19954;-48
2023/04/27 03:10:29;;;;;;;;;;;12.30;57.40;;;7.71;100.00;95544.25;4939165;28;20372;-49
2023/04/27 03:12:55;;;;;;;;;;;12.30;57.50;;;7.69;100.00;95542.88;4956099;28;19961;-48
2023/04/27 03:15:21;;;;;;;;;;;12.30;57.60;;;7.72;100.00;95540.53;4955830;28;20009;-52
2023/04/27 03:17:47;;;;;;;;;;;12.30;57.60;;;7.72;100.00;95537.09;4967384;28;19910;-47
2023/04/27 03:20:13;;;;;;;;;;;12.30;57.70;;;7.70;100.00;95539.97;4975258;28;19910;-47
2023/04/27 03:22:38;;;;;;;;;;;12.30;57.80;;;7.72;100.00;95545.84;4969523;28;20001;-48
2023/04/27 03:25:05;;;;;;;;;;;12.30;57.80;;;7.73;100.00;95552.75;4955919;28;20034;-48
2023/04/27 03:27:31;;;;;;;;;;;12.30;57.90;;;7.73;100.00;95552.75;4955855;28;19914;-49
2023/04/27 03:29:57;;;;;;;;;;;12.30;58.00;;;7.74;100.00;95553.53;4954570;28;19925;-50
2023/04/27 03:32:22;;;;;;;;;;;12.30;58.00;;;7.74;100.00;95548.22;4955542;28;19910;-49
2023/04/27 03:34:48;;;;;;;;;;;12.30;58.00;;;7.74;100.00;95556.19;4954925;28;19910;-49
2023/04/27 03:37:14;;;;;;;;;;;12.30;58.00;;;7.74;100.00;95554.38;4955701;28;20414;-50
2023/04/27 03:39:40;;;;;;;;;;;12.30;58.00;;;7.75;100.00;95560.47;4955625;28;19910;-48
2023/04/27 03:42:06;;;;;;;;;;;12.30;58.00;;;7.74;100.00;95551.72;4954810;28;19937;-51
2023/04/27 03:44:32;;;;;;;;;;;12.30;58.10;;;7.75;100.00;95552.50;4955702;28;19962;-50
2023/04/27 03:47:00;;;;;;;;;;;12.30;58.10;;;7.74;100.00;95551.72;4960606;28;19909;-49
2023/04/27 03:49:26;;;;;;;;;;;12.30;58.10;;;7.65;100.00;95547.88;4974968;28;19916;-50
2023/04/27 03:51:52;;;;;;;;;;;12.30;58.10;;;7.64;100.00;95552.38;4974588;28;19917;-48
2023/04/27 03:54:18;;;;;;;;;;;12.30;58.10;;;7.60;100.00;95556.56;4956402;28;19921;-47
2023/04/27 03:56:43;;;;;;;;;;;12.20;58.10;;;7.60;100.00;95561.88;4954634;28;19914;-47
2023/04/27 03:59:09;;;;;;;;;;;12.20;58.20;;;7.55;100.00;95559.16;4954202;28;20008;-50
2023/04/27 04:01:36;;;;;;;;;;;12.20;58.20;;;7.54;100.00;95552.25;4948467;28;20384;-47
2023/04/27 04:04:01;;;;;;;;;;;12.20;58.30;;;7.50;100.00;95559.09;4955066;28;19922;-48
2023/04/27 04:06:27;;;;;;;;;;;12.20;58.30;;;7.50;100.00;95559.09;4954250;28;19914;-50
2023/04/27 04:08:54;;;;;;;;;;;12.10;58.30;;;7.48;100.00;95566.47;4955130;28;19910;-49
2023/04/27 04:11:20;;;;;;;;;;;12.10;58.30;;;7.49;100.00;95562.78;4945965;28;20016;-47
2023/04/27 04:13:46;;;;;;;;;;;12.10;58.40;;;7.45;100.00;95561.66;4973013;28;20028;-47
2023/04/27 04:16:12;;;;;;;;;;;12.10;58.40;;;7.42;100.00;95570.09;4972854;28;19955;-52
2023/04/27 04:18:38;;;;;;;;;;;12.10;58.50;;;7.41;100.00;95568.50;4955010;28;19910;-47
2023/04/27 04:21:04;;;;;;;;;;;12.00;58.50;;;7.41;100.00;95564.00;4954727;28;19918;-49
2023/04/27 04:23:31;;;;;;;;;;;12.00;58.50;;;7.40;100.00;95569.56;4953861;28;19914;-49
2023/04/27 04:25:57;;;;;;;;;;;12.00;59.20;;;7.39;100.00;95575.88;4937828;28;19964;-52
2023/04/27 04:28:24;;;;;;;;;;;12.00;58.60;;;7.36;100.00;95576.38;4954681;28;19990;-49
2023/04/27 04:30:50;;;;;;;;;;;12.00;58.70;;;7.38;100.00;95579.59;4961917;28;19914;-47
2023/04/27 04:33:16;;;;;;;;;;;12.00;58.80;;;7.36;100.00;95571.06;4954383;28;19921;-49
2023/04/27 04:35:42;;;;;;;;;;;12.00;58.80;;;7.36;100.00;95569.25;4946346;28;19938;-48
2023/04/27 04:38:09;;;;;;;;;;;12.00;58.90;;;7.35;100.00;95566.84;4935271;29;19914;-49
2023/04/27 04:40:38;;;;;;;;;;;12.00;58.90;;;7.32;100.00;95562.03;4937957;28;20403;-48
2023/04/27 04:43:04;;;;;;;;;;;12.00;58.90;;;7.33;100.00;95558.31;4954177;28;19910;-49
2023/04/27 04:45:30;;;;;;;;;;;12.00;58.90;;;7.36;100.00;95557.81;4953919;28;19914;-49
2023/04/27 04:47:55;;;;;;;;;;;12.00;58.90;;;7.38;100.00;95561.03;4953657;28;20016;-47
2023/04/27 04:50:22;;;;;;;;;;;12.00;59.00;;;7.39;100.00;95567.94;4954439;28;19956;-48
2023/04/27 04:52:48;;;;;;;;;;;12.00;58.90;;;7.37;100.00;95565.53;4953372;28;20090;-48
2023/04/27 04:55:14;;;;;;;;;;;12.00;59.00;;;7.38;100.00;95575.09;4954248;28;20365;-47
2023/04/27 04:57:40;;;;;;;;;;;12.00;59.00;;;7.43;100.00;95571.72;4953886;28;20021;-48
2023/04/27 05:00:11;;;;;;;;;;;12.10;59.00;;;7.45;100.00;95572.25;4953346;28;20345;-47
2023/04/27 05:02:37;;;;;;;;;;;12.10;59.10;;;7.50;100.00;95579.50;4951449;28;19989;-48
2023/04/27 05:05:03;;;;;;;;;;;12.20;59.10;;;7.53;100.00;95576.34;4952746;28;20369;-52
2023/04/27 05:07:29;;;;;;;;;;;12.30;59.10;;;7.59;100.00;95584.13;4953833;28;19910;-48
2023/04/27 05:09:55;;;;;;;;;;;12.30;59.10;;;7.63;100.00;95582.59;4953754;28;19910;-50
2023/04/27 05:12:21;;;;;;;;;;;12.40;59.20;;;7.66;100.00;95578.66;4952933;28;19910;-49
2023/04/27 05:14:47;;;;;;;;;;;12.50;59.20;;;7.75;100.00;95573.72;4953894;28;19913;-49
2023/04/27 05:17:13;;;;;;;;;;;12.50;59.10;;;7.81;100.00;95573.53;4953025;28;19910;-49
2023/04/27 05:19:38;;;;;;;;;;;12.60;59.10;;;7.87;100.00;95571.75;4953900;28;20357;-50
2023/04/27 05:22:04;;;;;;;;;;;12.60;59.10;;;7.94;100.00;95575.00;4953491;28;19972;-48
2023/04/27 05:24:30;;;;;;;;;;;12.70;59.10;;;7.97;100.00;95569.22;4951450;28;19914;-50
2023/04/27 05:26:56;;;;;;;;;;;12.70;59.00;;;8.04;100.00;95574.31;4953462;28;19949;-49
2023/04/27 05:29:22;;;;;;;;;;;12.80;59.10;;;8.08;100.00;95578.91;4961303;28;19944;-49
2023/04/27 05:31:47;;;;;;;;;;;12.90;59.00;;;8.17;100.00;95578.44;4965809;28;19914;-54
2023/04/27 05:34:13;;;;;;;;;;;13.00;59.00;;;8.24;100.00;95587.00;4953598;28;20001;-52
2023/04/27 05:36:39;;;;;;;;;;;13.10;59.10;;;8.30;100.00;95584.19;4971835;28;19909;-52
2023/04/27 05:39:05;;;;;;;;;;;13.20;59.00;;;8.35;100.00;95586.06;4953988;28;19993;-49
2023/04/27 05:41:31;;;;;;;;;;;13.30;59.00;;;8.46;100.00;95582.50;4903053;28;24324;-51
2023/04/27 05:43:56;;;;;;;;;;;13.40;58.90;;;8.54;100.00;95590.00;4949775;28;19996;-49
2023/04/27 05:46:22;;;;;;;;;;;13.50;58.90;;;8.64;100.00;95589.28;4950966;28;19910;-50
2023/04/27 05:48:48;;;;;;;;;;;13.60;58.90;;;8.70;100.00;95596.25;4936087;29;20008;-49
2023/04/27 05:51:14;;;;;;;;;;;13.70;58.80;;;8.79;100.00;95604.56;4953426;28;19910;-52
2023/04/27 05:53:40;;;;;;;;;;;13.80;58.80;;;8.88;100.00;95596.94;4952762;28;19914;-53
2023/04/27 05:56:06;;;;;;;;;;;13.90;58.80;;;8.97;100.00;95593.56;4938136;28;19910;-53
2023/04/27 05:58:32;;;;;;;;;;;14.00;58.70;;;9.06;100.00;95593.09;4956751;28;19928;-48
2023/04/27 06:01:02;;;;;;;;;;;14.20;58.70;;;9.17;100.00;95603.53;4940200;28;19917;-52
2023/04/27 06:03:29;;;;;;;;;;;14.30;58.60;;;9.29;100.00;95603.38;4954565;28;19941;-52
2023/04/27 06:05:57;;;;;;;;;;;14.40;58.50;;;9.42;100.00;95599.47;4955790;28;19956;-54
2023/04/27 06:08:23;;;;;;;;;;;14.60;58.50;;;9.55;100.00;95596.34;4956114;28;20284;-52
2023/04/27 06:10:50;;;;;;;;;;;14.60;58.40;;;9.65;100.00;95612.38;4956258;28;19917;-51
2023/04/27 06:13:17;;;;;;;;;;;14.70;58.40;;;9.73;100.00;95608.41;4957210;28;19910;-53
2023/04/27 06:15:43;;;;;;;;;;;14.80;58.40;;;9.80;100.00;95611.63;4957428;28;19910;-52
2023/04/27 06:18:09;;;;;;;;;;;14.80;58.30;;;9.85;99.71;95609.00;4956407;28;19914;-53
2023/04/27 06:20:35;;;;;;;;;;;15.00;58.30;;;9.87;98.84;95604.25;4939625;28;20316;-49
2023/04/27 06:23:01;;;;;;;;;;;15.10;58.20;;;9.92;95.70;95598.94;4955940;28;20207;-47
2023/04/27 06:25:27;;;;;;;;;;;15.10;58.00;;;9.99;95.68;95605.88;4955846;28;20008;-47
2023/04/27 06:27:55;;;;;;;;;;;15.20;57.90;;;10.04;93.99;95608.56;4956936;28;19910;-47
2023/04/27 06:30:22;;;;;;;;;;;15.20;57.90;;;10.11;95.43;95612.56;4956200;28;19925;-47
2023/04/27 06:32:48;;;;;;;;;;;15.20;57.80;;;10.23;94.38;95615.03;4939774;28;19917;-53
2023/04/27 06:35:14;;;;;;;;;;;15.30;57.80;;;10.37;93.66;95626.81;4963143;28;20013;-55
2023/04/27 06:37:40;;;;;;;;;;;15.50;57.70;;;10.52;92.51;95620.72;4975553;28;20383;-57
2023/04/27 06:40:07;;;;;;;;;;;15.70;57.70;;;10.65;89.62;95622.06;4976234;28;19922;-57
2023/04/27 06:42:33;;;;;;;;;;;15.90;57.60;;;10.80;88.95;95618.66;4956965;28;19946;-57
2023/04/27 06:44:59;;;;;;;;;;;16.00;58.00;;;10.93;85.03;95626.13;4956554;28;20329;-57
2023/04/27 06:47:25;;;;;;;;;;;16.20;57.10;;;11.16;82.84;95622.16;4954283;28;20012;-56
2023/04/27 06:49:51;;;;;;;;;;;16.50;56.90;;;11.53;81.89;95624.53;4955414;28;19940;-56
2023/04/27 06:52:17;;;;;;;;;;;17.00;56.70;;;11.80;80.31;95613.50;4955576;28;19933;-54
2023/04/27 06:54:43;;;;;;;;;;;17.40;56.50;;;12.12;78.17;95617.72;4965931;28;20005;-57
2023/04/27 06:57:09;;;;;;;;;;;17.90;56.20;;;12.58;77.80;95628.19;4956375;28;19914;-57
2023/04/27 06:59:34;;;;;;;;;;;18.40;55.70;;;12.65;76.41;95639.34;4965562;28;20389;-56
2023/04/27 07:02:00;;;;;;;;;;;18.70;55.40;;;12.84;75.93;95628.81;4975612;28;20427;-57
2023/04/27 07:04:26;;;;;;;;;;;18.80;55.00;;;12.91;73.52;95639.19;4973446;28;20032;-57
2023/04/27 07:06:52;;;;;;;;;;;18.80;54.80;;;12.90;73.32;95643.75;4955367;28;19910;-54
2023/04/27 07:09:18;;;;;;;;;;;18.80;54.70;;;12.93;71.60;95645.09;4956489;28;20309;-51
2023/04/27 07:11:44;;;;;;;;;;;18.70;54.50;;;12.98;70.97;95637.03;4955033;28;19921;-57
2023/04/27 07:14:09;;;;;;;;;;;18.70;54.40;;;12.93;74.74;95637.84;4956178;28;19918;-55
2023/04/27 07:16:35;;;;;;;;;;;18.60;54.30;;;12.96;76.70;95642.66;4940162;28;19918;-55
2023/04/27 07:19:01;;;;;;;;;;;18.60;54.20;;;12.85;74.70;95641.13;4975082;28;19963;-57
2023/04/27 07:21:27;;;;;;;;;;;18.60;54.10;;;12.80;74.87;95645.72;4975135;28;19947;-55
2023/04/27 07:23:53;;;;;;;;;;;18.60;53.90;;;12.83;75.79;95645.94;4970809;28;19918;-57
2023/04/27 07:26:20;;;;;;;;;;;18.60;53.80;;;12.84;74.54;95647.53;4954682;28;20004;-57
2023/04/27 07:28:46;;;;;;;;;;;18.60;53.80;;;12.88;77.29;95637.09;4953821;28;19917;-56
2023/04/27 07:31:13;;;;;;;;;;;18.70;54.40;;;12.82;74.25;95646.25;4955945;28;19910;-57
2023/04/27 07:33:39;;;;;;;;;;;18.70;53.70;;;12.81;76.11;95639.28;4955974;28;19910;-56
2023/04/27 07:36:07;;;;;;;;;;;18.70;53.50;;;12.79;74.87;95639.56;4954975;28;19988;-56
2023/04/27 07:38:34;;;;;;;;;;;18.60;53.30;;;12.85;74.82;95641.13;4955676;28;20284;-56
2023/04/27 07:41:01;;;;;;;;;;;18.70;53.50;;;12.91;75.02;95640.03;4954996;28;19910;-57
2023/04/27 07:43:28;;;;;;;;;;;18.70;53.20;;;12.94;74.67;95636.81;4955673;28;19921;-56
2023/04/27 07:45:54;;;;;;;;;;;18.70;53.20;;;12.98;73.43;95641.59;4955674;28;19932;-57
2023/04/27 07:48:21;;;;;;;;;;;18.70;53.00;;;13.04;74.81;95635.94;4953487;28;19910;-59
2023/04/27 07:50:47;;;;;;;;;;;18.70;53.00;;;13.01;73.17;95641.03;4955501;28;20034;-55
2023/04/27 07:53:12;;;;;;;;;;;18.80;53.00;;;12.98;73.18;95630.91;4953522;28;20424;-55
2023/04/27 07:55:38;;;;;;;;;;;18.80;52.90;;;13.02;72.55;95629.25;4955343;28;19989;-55
2023/04/27 07:58:04;;;;;;;;;;;18.80;52.70;;;13.01;71.92;95625.00;4955460;28;19917;-56
2023/04/27 08:00:30;;;;;;;;;;;18.90;52.70;;;13.06;71.86;95632.97;4948434;28;20375;-53
2023/04/27 08:02:56;;;;;;;;;;;18.90;52.60;;;13.17;71.82;95634.50;4950671;28;19917;-57
2023/04/27 08:05:22;;;;;;;;;;;19.00;52.50;;;13.30;72.64;95633.09;4944124;28;19937;-57
2023/04/27 08:07:48;;;;;;;;;;;19.10;52.50;;;13.43;73.18;95635.91;4953919;28;19914;-57
2023/04/27 08:10:15;;;;;;;;;;;19.30;52.50;;;13.42;73.01;95628.16;4954754;28;19921;-56
2023/04/27 08:12:41;;;;;;;;;;;19.50;52.30;;;13.54;70.94;95631.28;4954929;28;19937;-57
2023/04/27 08:15:07;;;;;;;;;;;19.60;52.20;;;13.61;73.96;95625.59;4954673;28;19914;-57
2023/04/27 08:17:35;;;;;;;;;;;19.60;52.10;;;13.84;72.32;95632.84;4920835;28;20436;-57
2023/04/27 08:20:01;;;;;;;;;;;19.80;52.20;;;14.04;70.71;95631.84;4936890;28;20025;-56
2023/04/27 08:22:26;;;;;;;;;;;20.00;52.10;;;14.23;68.99;95634.56;4954069;28;20341;-57
2023/04/27 08:24:52;;;;;;;;;;;20.30;51.90;;;14.35;67.85;95628.78;4937570;28;19914;-55
2023/04/27 08:27:18;;;;;;;;;;;20.50;51.60;;;14.54;69.26;95629.66;4954795;28;19910;-57
2023/04/27 08:29:47;;;;;;;;;;;20.80;51.30;;;15.03;69.40;95624.94;4953952;28;19936;-56
2023/04/27 08:32:14;;;;;;;;;;;21.20;51.20;;;15.36;64.96;95620.41;4954650;28;19932;-56
2023/04/27 08:34:41;;;;;;;;;;;21.60;51.20;;;15.53;63.22;95624.44;4956497;28;19914;-56
2023/04/27 08:37:07;;;;;;;;;;;21.80;50.80;;;15.76;62.95;95620.03;4971800;28;19910;-57
2023/04/27 08:39:33;;;;;;;;;;;22.00;50.60;;;16.05;61.03;95628.63;4954705;28;20009;-57
2023/04/27 08:41:59;;;;;;;;;;;22.40;50.10;;;16.43;60.22;95618.44;4953703;28;19910;-55
2023/04/27 08:44:25;;;;;;;;;;;22.80;49.60;;;16.78;60.04;95626.88;4954355;28;19920;-53
2023/04/27 08:46:51;;;;;;;;;;;23.10;49.40;;;16.82;57.71;95627.06;4957485;28;20374;-55
2023/04/27 08:49:17;;;;;;;;;;;23.40;49.10;;;16.97;57.71;95626.72;4973793;28;19909;-55
2023/04/27 08:51:43;;;;;;;;;;;23.60;48.50;;;17.16;54.41;95623.88;4973700;28;19909;-55
2023/04/27 08:54:09;;;;;;;;;;;23.80;48.30;;;17.20;56.72;95627.53;4957825;28;19973;-57
2023/04/27 08:56:35;;;;;;;;;;;24.00;47.90;;;17.27;53.72;95627.94;4953655;28;19914;-53
2023/04/27 08:59:03;;;;;;;;;;;24.30;47.60;;;17.40;55.20;95628.97;4952257;28;19921;-54
2023/04/27 09:01:29;;;;;;;;;;;24.40;47.30;;;17.58;56.37;95624.50;4952587;28;20061;-55
2023/04/27 09:04:06;;;;;;;;;;;24.60;47.10;;;17.85;52.66;95620.84;4952832;28;19921;-56
2023/04/27 09:06:34;;;;;;;;;;;24.80;46.80;;;18.07;53.87;95620.00;4970606;28;20260;-54
2023/04/27 09:09:01;;;;;;;;;;;25.10;46.50;;;18.31;50.59;95622.31;4955858;28;19961;-56
2023/04/27 09:11:37;;;;;;;;;;;25.20;46.40;;;18.38;50.31;95614.56;4952772;28;19910;-52
2023/04/27 09:14:15;;;;;;;;;;;25.30;46.70;;;18.83;52.46;95610.84;4953803;28;19913;-56
2023/04/27 09:16:42;;;;;;;;;;;25.70;45.90;;;18.89;47.70;95613.09;4935813;28;20016;-57
2023/04/27 09:19:08;;;;;;;;;;;25.90;45.70;;;18.95;46.48;95611.81;4954023;28;19925;-56
2023/04/27 09:21:33;;;;;;;;;;;26.20;45.20;;;19.19;47.81;95622.16;4952511;28;19918;-59
2023/04/27 09:24:14;;;;;;;;;;;26.50;44.70;;;19.03;48.43;95614.84;4952616;28;19914;-57
2023/04/27 09:26:41;;;;;;;;;;;26.70;44.40;;;19.00;47.31;95616.28;4953790;28;19921;-55
2023/04/27 09:29:08;;;;;;;;;;;26.90;44.10;;;18.86;47.66;95613.72;4952888;28;19910;-56
2023/04/27 09:31:35;;;;;;;;;;;26.90;43.90;;;18.49;48.19;95617.78;4953469;28;19909;-58
2023/04/27 09:34:02;;;;;;;;;;;26.80;43.70;;;18.57;47.13;95611.59;4953790;28;19914;-57
2023/04/27 09:36:31;;;;;;;;;;;27.10;43.30;;;19.12;46.88;95608.34;4952798;28;19910;-57
2023/04/27 09:38:57;;;;;;;;;;;27.40;43.00;;;19.69;46.88;95610.03;4952236;28;19916;-56
2023/04/27 09:41:25;;;;;;;;;;;27.70;42.70;;;20.02;46.84;95610.25;4952635;28;19964;-55
2023/04/27 09:43:54;;;;;;;;;;;28.00;42.70;;;20.18;43.92;95602.41;4953779;28;20266;-52
2023/04/27 09:46:22;;;;;;;;;;;28.00;42.50;;;20.33;44.32;95606.44;4952941;28;20005;-54
2023/04/27 09:48:50;;;;;;;;;;;28.10;42.20;;;20.49;42.97;95603.97;4952124;28;20012;-54
2023/04/27 09:51:16;;;;;;;;;;;28.40;42.00;;;20.92;43.47;95606.44;4952301;28;19945;-57
2023/04/27 09:53:57;;;;;;;;;;;28.70;41.60;;;21.17;43.39;95601.16;4952370;28;19956;-56
2023/04/27 09:57:13;;;;;;;;;;;28.90;41.50;;;21.41;42.27;95608.63;4952414;28;19997;-56
2023/04/27 10:00:15;;;;;;;;;;;29.10;41.40;;;21.99;40.18;95593.19;4919836;29;20274;-57
2023/04/27 10:03:13;;;;;;;;;;;29.30;41.10;;;21.89;41.08;95583.56;4952148;29;20004;-57
2023/04/27 10:06:10;;;;;;;;;;;29.70;40.80;;;21.76;41.09;95587.38;4944682;28;19918;-55
2023/04/27 10:08:38;;;;;;;;;;;30.10;40.30;;;21.48;40.37;95590.69;4953448;29;19910;-56
2023/04/27 10:11:19;;;;;;;;;;;30.20;39.90;;;21.88;38.12;95592.03;4967814;28;19910;-57
2023/04/27 10:13:53;;;;;;;;;;;30.40;39.40;;;22.19;37.63;95596.97;4972541;28;19956;-58
2023/04/27 10:16:20;;;;;;;;;;;30.70;39.00;;;22.22;38.26;95598.19;4956009;28;20289;-58
2023/04/27 10:18:55;;;;;;;;;;;30.90;38.60;;;21.64;38.68;95598.19;4933913;29;19917;-57
2023/04/27 10:21:22;;;;;;;;;;;30.90;38.50;;;21.71;39.50;95584.88;4934086;29;19926;-58
2023/04/27 10:23:51;;;;;;;;;;;30.70;39.00;;;21.06;38.06;95589.13;4945213;28;19921;-56
2023/04/27 10:26:26;;;;;;;;;;;30.70;38.10;;;21.54;37.14;95590.50;4953307;29;19992;-54
2023/04/27 10:29:06;;;;;;;;;;;30.70;38.60;;;21.20;39.01;95590.44;4956118;28;20385;-57
2023/04/27 10:31:32;;;;;;;;;;;30.50;37.80;;;21.52;37.82;95585.41;4972402;28;19910;-58
2023/04/27 10:34:09;;;;;;;;;;;30.50;37.60;;;21.42;36.80;95591.25;4972399;28;19909;-57
2023/04/27 10:36:39;;;;;;;;;;;30.40;37.30;;;21.64;37.64;95582.72;4937614;28;19957;-58
2023/04/27 10:39:25;;;;;;;;;;;30.40;37.30;;;21.98;37.31;95594.31;4933798;29;19914;-58
2023/04/27 10:41:55;;;;;;;;;;;30.40;37.30;;;22.09;37.51;95591.94;4944756;28;19914;-57
2023/04/27 10:44:27;;;;;;;;;;;30.50;37.10;;;22.27;36.31;95571.63;4956652;28;20005;-58
2023/04/27 10:46:55;;;;;;;;;;;30.60;37.00;;;22.27;37.81;95576.28;4937622;28;19918;-57
2023/04/27 10:49:22;;;;;;;;;;;30.70;36.90;;;22.59;37.79;95578.06;4959332;28;19917;-58
2023/04/27 10:51:50;;;;;;;;;;;30.80;36.80;;;22.71;37.24;95571.81;4961644;28;19910;-58
2023/04/27 10:54:17;;;;;;;;;;;31.00;36.60;;;22.12;35.89;95577.69;4954054;28;19913;-58
2023/04/27 10:56:44;;;;;;;;;;;31.00;36.40;;;22.20;36.91;95566.00;4938582;28;19910;-57
2023/04/27 10:59:10;;;;;;;;;;;30.90;36.00;;;22.42;37.03;95563.97;4934898;29;19918;-58
2023/04/27 11:01:36;;;;;;;;;;;30.90;35.90;;;22.62;37.56;95565.72;4936640;29;19997;-58
2023/04/27 11:04:04;;;;;;;;;;;30.90;36.00;;;22.20;36.77;95568.69;4936969;29;19914;-58
2023/04/27 11:06:33;;;;;;;;;;;30.80;35.80;;;21.90;37.14;95574.28;4953487;28;19910;-58
2023/04/27 11:09:00;;;;;;;;;;;30.70;35.60;;;22.11;36.79;95562.56;4956281;28;20364;-58
2023/04/27 11:11:26;;;;;;;;;;;30.60;35.50;;;22.52;36.88;95568.91;4955045;28;19965;-57
2023/04/27 11:13:54;;;;;;;;;;;30.60;35.50;;;22.73;38.39;95563.34;4955165;28;19914;-57
2023/04/27 11:16:20;;;;;;;;;;;30.70;35.50;;;22.62;35.26;95558.38;4953999;28;20588;-57
2023/04/27 11:18:46;;;;;;;;;;;30.90;35.30;;;23.12;34.50;95561.00;4955570;28;19929;-52